Ursa Minor — ICGH — position and weather

sailwx.info

Track history (hours):
 
Tides and Currents Weather Stations Pressure Air Temp Water Temp Dewpoint Dewpoint Depression Visibility Wind Speed Wind Dir Waves Ship Positions

Ursa Minor

Last reported at 2014-Dec-20 18:24 UTC. Time now 2014-Dec-20 23:42 UTC.
Position N 43°26' E 010°04'.

Length 205 m; draft 7.2 m.

MMSI: 247082300.

Date/timePositionNaut miles runAvg speedWind from/ knotsBaromVisibWave heightAir tempDewpointWater temp
2014-Dec-20 18:24N 43°26' E 010°04'6 6.8
2014-Dec-20 17:33N 43°30' E 009°60'8 8.1
2014-Dec-20 16:33N 43°37' E 009°53'1313.3
2014-Dec-20 15:33N 43°47' E 009°40'1312.5
2014-Dec-20 14:34N 43°56' E 009°29'1312.8
2014-Dec-20 13:34N 44°05' E 009°16'1312.6
2014-Dec-20 12:33N 44°14' E 009°04'1111.3
2014-Dec-20 11:33N 44°23' E 008°55'2 2.2
2014-Dec-20 10:33N 44°24' E 008°52'0 0.0
2014-Dec-20 09:33N 44°24' E 008°52'0 0.0
2014-Dec-20 08:33N 44°24' E 008°52'0 0.0
2014-Dec-20 07:33N 44°24' E 008°52'0 0.0
2014-Dec-20 06:33N 44°24' E 008°52'0 0.2
2014-Dec-20 05:33N 44°24' E 008°52'0 0.2
2014-Dec-20 04:33N 44°24' E 008°52'7 6.6
2014-Dec-20 03:33N 44°20' E 008°60'2 1.6
2014-Dec-20 02:33N 44°19' E 009°01'1010.2
2014-Dec-20 01:34N 44°11' E 009°09'1111.2
2014-Dec-20 00:33N 44°03' E 009°20'1110.8
2014-Dec-19 23:34N 43°55' E 009°30'1111.0
2014-Dec-19 22:34N 43°46' E 009°40'1211.5
2014-Dec-19 21:33N 43°37' E 009°50'1211.5
2014-Dec-19 20:33N 43°29' E 010°01'1111.4
2014-Dec-19 19:33N 43°19' E 010°09'1313.2
2014-Dec-19 18:32N 43°08' E 010°18'18813.4
2014-Dec-19 04:33N 40°56' E 013°19'1413.8
2014-Dec-19 03:34N 40°47' E 013°33'1413.6
2014-Dec-19 02:33N 40°38' E 013°46'1313.7
2014-Dec-19 01:33N 40°30' E 014°01'1313.2
2014-Dec-19 00:33N 40°20' E 014°11'13413.4
2014-Dec-18 14:30N 38°24' E 015°38'10 9.1
2014-Dec-18 13:23N 38°13' E 015°37'910.2
2014-Dec-18 12:31N 38°05' E 015°35'  
2014-Dec-14 15:31N 40°28' E 014°06'1212.9
2014-Dec-14 14:33N 40°35' E 013°53'1312.8
2014-Dec-14 13:34N 40°43' E 013°40'1312.7
2014-Dec-14 12:34N 40°51' E 013°27'21612.7
2014-Dec-13 19:32N 43°27' E 010°04'1212.3
2014-Dec-13 18:33N 43°36' E 009°53'1312.7
2014-Dec-13 17:33N 43°45' E 009°41'1313.0
2014-Dec-13 16:33N 43°55' E 009°29'1313.0
2014-Dec-13 15:34N 44°05' E 009°17'1312.6
2014-Dec-13 14:34N 44°14' E 009°05'1312.5
2014-Dec-13 13:34N 44°23' E 008°54'2 1.6
2014-Dec-13 12:33N 44°24' E 008°52'0 0.2
2014-Dec-13 11:33N 44°24' E 008°52'0 0.0
2014-Dec-13 10:33N 44°24' E 008°52'0 0.0
2014-Dec-13 09:33N 44°24' E 008°52'0 0.0
2014-Dec-13 08:32N 44°24' E 008°52'2 2.3
2014-Dec-13 07:33N 44°23' E 008°55'9 9.4
2014-Dec-13 06:33N 44°16' E 009°04'1413.6
2014-Dec-13 05:33N 44°06' E 009°16'1313.4
2014-Dec-13 04:33N 43°56' E 009°28'1313.4
2014-Dec-13 03:33N 43°46' E 009°41'1313.2
2014-Dec-13 02:33N 43°36' E 009°52'1313.3
2014-Dec-13 01:33N 43°26' E 010°04'1313.1
2014-Dec-13 00:33N 43°14' E 010°13'19613.0
2014-Dec-12 09:26N 40°56' E 013°20'1213.5
2014-Dec-12 08:33N 40°48' E 013°32'1413.6
2014-Dec-12 07:32N 40°39' E 013°46'1313.4
2014-Dec-12 06:33N 40°31' E 013°60'1312.9
2014-Dec-12 05:32N 40°21' E 014°11'14312.7
2014-Dec-11 18:20N 38°17' E 015°43'810.4
2014-Dec-11 17:32N 38°10' E 015°38'  
Track history (hours):
 
Tides and Currents Weather Stations Pressure Air Temp Water Temp Dewpoint Dewpoint Depression Visibility Wind Speed Wind Dir Waves Ship Positions

Ursa Minor

Last reported at 2014-Dec-20 18:24 UTC. Time now 2014-Dec-20 23:42 UTC.
Position N 43°26' E 010°04'.

Length 205 m; draft 7.2 m.

MMSI: 247082300.

Date/timePositionNaut miles runAvg speedWind from/ knotsBaromVisibWave heightAir tempDewpointWater temp
2014-Dec-20 18:24N 43°26' E 010°04'6 6.8
2014-Dec-20 17:33N 43°30' E 009°60'8 8.1
2014-Dec-20 16:33N 43°37' E 009°53'1313.3
2014-Dec-20 15:33N 43°47' E 009°40'1312.5
2014-Dec-20 14:34N 43°56' E 009°29'1312.8
2014-Dec-20 13:34N 44°05' E 009°16'1312.6
2014-Dec-20 12:33N 44°14' E 009°04'1111.3
2014-Dec-20 11:33N 44°23' E 008°55'2 2.2
2014-Dec-20 10:33N 44°24' E 008°52'0 0.0
2014-Dec-20 09:33N 44°24' E 008°52'0 0.0
2014-Dec-20 08:33N 44°24' E 008°52'0 0.0
2014-Dec-20 07:33N 44°24' E 008°52'0 0.0
2014-Dec-20 06:33N 44°24' E 008°52'0 0.2
2014-Dec-20 05:33N 44°24' E 008°52'0 0.2
2014-Dec-20 04:33N 44°24' E 008°52'7 6.6
2014-Dec-20 03:33N 44°20' E 008°60'2 1.6
2014-Dec-20 02:33N 44°19' E 009°01'1010.2
2014-Dec-20 01:34N 44°11' E 009°09'1111.2
2014-Dec-20 00:33N 44°03' E 009°20'1110.8
2014-Dec-19 23:34N 43°55' E 009°30'1111.0
2014-Dec-19 22:34N 43°46' E 009°40'1211.5
2014-Dec-19 21:33N 43°37' E 009°50'1211.5
2014-Dec-19 20:33N 43°29' E 010°01'1111.4
2014-Dec-19 19:33N 43°19' E 010°09'1313.2
2014-Dec-19 18:32N 43°08' E 010°18'18813.4
2014-Dec-19 04:33N 40°56' E 013°19'1413.8
2014-Dec-19 03:34N 40°47' E 013°33'1413.6
2014-Dec-19 02:33N 40°38' E 013°46'1313.7
2014-Dec-19 01:33N 40°30' E 014°01'1313.2
2014-Dec-19 00:33N 40°20' E 014°11'13413.4
2014-Dec-18 14:30N 38°24' E 015°38'10 9.1
2014-Dec-18 13:23N 38°13' E 015°37'910.2
2014-Dec-18 12:31N 38°05' E 015°35'  
2014-Dec-14 15:31N 40°28' E 014°06'1212.9
2014-Dec-14 14:33N 40°35' E 013°53'1312.8
2014-Dec-14 13:34N 40°43' E 013°40'1312.7
2014-Dec-14 12:34N 40°51' E 013°27'21612.7
2014-Dec-13 19:32N 43°27' E 010°04'1212.3
2014-Dec-13 18:33N 43°36' E 009°53'1312.7
2014-Dec-13 17:33N 43°45' E 009°41'1313.0
2014-Dec-13 16:33N 43°55' E 009°29'1313.0
2014-Dec-13 15:34N 44°05' E 009°17'1312.6
2014-Dec-13 14:34N 44°14' E 009°05'1312.5
2014-Dec-13 13:34N 44°23' E 008°54'2 1.6
2014-Dec-13 12:33N 44°24' E 008°52'0 0.2
2014-Dec-13 11:33N 44°24' E 008°52'0 0.0
2014-Dec-13 10:33N 44°24' E 008°52'0 0.0
2014-Dec-13 09:33N 44°24' E 008°52'0 0.0
2014-Dec-13 08:32N 44°24' E 008°52'2 2.3
2014-Dec-13 07:33N 44°23' E 008°55'9 9.4
2014-Dec-13 06:33N 44°16' E 009°04'1413.6
2014-Dec-13 05:33N 44°06' E 009°16'1313.4
2014-Dec-13 04:33N 43°56' E 009°28'1313.4
2014-Dec-13 03:33N 43°46' E 009°41'1313.2
2014-Dec-13 02:33N 43°36' E 009°52'1313.3
2014-Dec-13 01:33N 43°26' E 010°04'1313.1
2014-Dec-13 00:33N 43°14' E 010°13'19613.0
2014-Dec-12 09:26N 40°56' E 013°20'1213.5
2014-Dec-12 08:33N 40°48' E 013°32'1413.6
2014-Dec-12 07:32N 40°39' E 013°46'1313.4
2014-Dec-12 06:33N 40°31' E 013°60'1312.9
2014-Dec-12 05:32N 40°21' E 014°11'14312.7
2014-Dec-11 18:20N 38°17' E 015°43'810.4
2014-Dec-11 17:32N 38°10' E 015°38'  

Dump ship's entire track history